全部
Telfer Airport (Telfer, Western Australia) TEF 天气
|
Telfer, Western Australia (YTEF)
晴天
多风 |
|
19 °C |
TEF终端机场天气预报
| Date | Time (AWST) | Flight Rules | Wind Dir. | Speed | Type | Height AGL (ft) | Visibility | Remarks | ||||||
|---|---|---|---|---|---|---|---|---|---|---|---|---|---|---|
TEF近期METAR历史数据
| Date | Time (AWST) | Flight Rules | Wind Dir. | Speed | Type | Height AGL (ft) | Visibility | Temp (°C) | Temp (°F) | Dew Point (°C) | Dew Point (°F) | Rel. Humid. | Pressure | Density Altitude | Remarks |
|---|---|---|---|---|---|---|---|---|---|---|---|---|---|---|---|
| 06-五月 | 02:00 | VFR | 140° | 17 kt | 10000 meters | 19° | 66° | 1° | 33° | 30% | 1016 mb | 1,368 ft | |||
| 06-五月 | 01:00 | VFR | 140° | 14 kt | 10000 meters | 19° | 66° | 1° | 33° | 30% | 1017 mb | 1,338 ft | |||
| 06-五月 | 00:00 | VFR | 150° | 15 kt | 10000 meters | 20° | 68° | 1° | 33° | 28% | 1017 mb | 1,458 ft | |||
| 05-五月 | 23:00 | VFR | 150° | 16 kt | 10000 meters | 20° | 68° | 1° | 33° | 28% | 1017 mb | 1,458 ft | |||
| 05-五月 | 22:00 | VFR | 170° | 15 kt | 10000 meters | 21° | 69° | 1° | 33° | 26% | 1017 mb | 1,578 ft | |||
| 05-五月 | 21:00 | VFR | 170° | 13 kt | 10000 meters | 22° | 71° | 1° | 33° | 25% | 1018 mb | 1,668 ft | |||
| 05-五月 | 20:00 | VFR | 170° | 12 kt | 10000 meters | 22° | 71° | 0° | 32° | 23% | 1017 mb | 1,698 ft | |||
| 05-五月 | 19:00 | VFR | 160° | 8 kt | 10000 meters | 23° | 73° | 0° | 32° | 22% | 1017 mb | 1,818 ft | |||
| 05-五月 | 18:00 | VFR | 160° | 8 kt | 10000 meters | 24° | 75° | -1° | 30° | 19% | 1017 mb | 1,938 ft | |||
| 05-五月 | 17:00 | VFR | 130° | 11 kt | 10000 meters | 26° | 78° | -2° | 28° | 16% | 1016 mb | 2,208 ft | |||
| 05-五月 | 16:00 | VFR | 140° | 15 kt | 10000 meters | 27° | 80° | -1° | 30° | 16% | 1015 mb | 2,357 ft | |||
| 05-五月 | 15:00 | VFR | 140° | 14 kt | 10000 meters | 27° | 80° | -2° | 28° | 15% | 1016 mb | 2,328 ft | |||
| 05-五月 | 14:00 | VFR | 130° | 12 kt | 10000 meters | 27° | 80° | -1° | 30° | 16% | 1016 mb | 2,328 ft | |||
| 05-五月 | 13:00 | VFR | 130° | 17 kt | 10000 meters | 26° | 78° | -1° | 30° | 17% | 1017 mb | 2,178 ft | |||
| 05-五月 | 12:00 | VFR | 120° | 14 kt | 10000 meters | 26° | 78° | -1° | 30° | 17% | 1017 mb | 2,178 ft | |||
| 05-五月 | 11:00 | VFR | 120° | 15 kt | 10000 meters | 24° | 75° | 2° | 35° | 24% | 1019 mb | 1,879 ft | |||
| 05-五月 | 10:00 | VFR | 120° | 15 kt | 10000 meters | 22° | 71° | 2° | 35° | 27% | 1020 mb | 1,609 ft | |||
| 05-五月 | 09:00 | VFR | 120° | 18 kt | 10000 meters | 20° | 68° | 2° | 35° | 30% | 1020 mb | 1,369 ft | |||
| 05-五月 | 08:00 | VFR | 130° | 18 kt | 10000 meters | 18° | 64° | 3° | 37° | 37% | 1020 mb | 1,129 ft | |||
| 05-五月 | 07:00 | VFR | 130° | 14 kt | 10000 meters | 14° | 57° | 2° | 35° | 44% | 1019 mb | 679 ft | |||
| 05-五月 | 06:00 | VFR | 140° | 13 kt | 10000 meters | 13° | 55° | 1° | 33° | 44% | 1019 mb | 559 ft | |||
| 05-五月 | 05:00 | VFR | 140° | 14 kt | 10000 meters | 14° | 57° | 0° | 32° | 38% | 1018 mb | 708 ft | |||
| 05-五月 | 04:00 | VFR | 140° | 11 kt | 10000 meters | 14° | 57° | 0° | 32° | 38% | 1018 mb | 708 ft | |||
| 05-五月 | 03:00 | VFR | 140° | 12 kt | 10000 meters | 15° | 59° | -1° | 30° | 33% | 1018 mb | 828 ft |
登录
| 您的浏览器不支持. 升级您的浏览器 |
